Yahata_maru — JD3008 — position and weather

sailwx.info

Track history (hours):
 
Tides and Currents Weather Stations Pressure Air Temp Water Temp Dewpoint Dewpoint Depression Visibility Wind Speed Wind Dir Waves Ship Positions

Yahata_maru

Last reported at 2017-Dec-11 05:01 UTC. Time now 2017-Dec-11 11:23 UTC.
Position N 33°15' E 131°36'.

Length 74 m; draft 4.8 m.

Type: Cargo ship. MMSI: 431001106.

Date/timePositionNaut miles runAvg speedWind from/ knotsBaromVisibWave heightAir tempDewpointWater temp
2017-Dec-11 05:01N 33°15' E 131°36'0 0.0
2017-Dec-11 05:00N 33°15' E 131°36'3 0.2
2017-Dec-10 12:20N 33°16' E 131°40'0 0.0
2017-Dec-10 01:30N 33°16' E 131°40'1 1.0
2017-Dec-10 00:57N 33°17' E 131°40'0 0.1
2017-Dec-10 00:21N 33°17' E 131°40'0 0.0
2017-Dec-10 00:00N 33°17' E 131°40'0 0.5
2017-Dec-09 23:29N 33°16' E 131°40'3 6.8
2017-Dec-09 23:00N 33°20' E 131°40'3 3.5
2017-Dec-09 22:12N 33°22' E 131°41'0 0.1
2017-Dec-09 21:48N 33°22' E 131°41'0 0.1
2017-Dec-09 21:24N 33°22' E 131°41'0 0.1
2017-Dec-09 20:54N 33°22' E 131°41'0 0.0
2017-Dec-09 20:24N 33°22' E 131°41'0 0.0
2017-Dec-09 20:00N 33°22' E 131°41'0 0.0
2017-Dec-09 19:30N 33°22' E 131°41'0 0.0
2017-Dec-09 19:00N 33°22' E 131°41'0 0.0
2017-Dec-09 18:30N 33°22' E 131°41'0 0.0
2017-Dec-09 18:00N 33°22' E 131°41'0 0.0
2017-Dec-09 17:30N 33°22' E 131°41'0 0.0
2017-Dec-09 16:54N 33°22' E 131°41'0 0.0
2017-Dec-09 16:30N 33°22' E 131°41'0 0.1
2017-Dec-09 16:00N 33°22' E 131°41'5112.2
2017-Dec-09 11:49N 33°50' E 132°33'613.7
2017-Dec-09 11:20N 33°55' E 132°38'514.2
2017-Dec-09 11:00N 33°58' E 132°43'9612.1
2017-Dec-09 03:07N 34°41' E 134°26'413.0
2017-Dec-09 02:49N 34°42' E 134°30'412.0
2017-Dec-09 02:30N 34°43' E 134°35'5 8.8
2017-Dec-09 01:58N 34°47' E 134°38'0 0.0
2017-Dec-08 18:47N 34°47' E 134°38'0 0.4
2017-Dec-08 18:27N 34°47' E 134°38'2 1.3
2017-Dec-08 16:52N 34°45' E 134°38'0 0.0
2017-Dec-08 15:40N 34°45' E 134°38'0 0.0
2017-Dec-08 15:22N 34°45' E 134°38'1 0.1
2017-Dec-08 05:18N 34°44' E 134°40'311.9
2017-Dec-08 05:01N 34°42' E 134°43'612.0
2017-Dec-08 04:30N 34°39' E 134°50'612.4
2017-Dec-08 04:01N 34°37' E 134°57'713.9
2017-Dec-08 03:30N 34°35' E 135°05'612.9
2017-Dec-08 03:00N 34°29' E 135°03'713.3
2017-Dec-08 02:30N 34°23' E 135°01'714.1
2017-Dec-08 02:00N 34°16' E 134°59'713.1
2017-Dec-08 01:26N 34°08' E 135°00'512.4
2017-Dec-08 01:01N 34°03' E 135°01'16310.0
2017-Dec-07 08:41N 34°33' E 138°15'211.5
2017-Dec-07 08:30N 34°33' E 138°17'1210.9
2017-Dec-07 07:23N 34°34' E 138°32'511.5
2017-Dec-07 06:57N 34°35' E 138°38'1511.0
2017-Dec-07 05:34N 34°36' E 138°57'110.1
2017-Dec-07 05:30N 34°36' E 138°57'611.4
2017-Dec-07 05:01N 34°40' E 139°03'1210.5
2017-Dec-07 03:52N 34°47' E 139°15'4411.8
2017-Dec-07 00:10N 34°58' E 140°06'  
2017-Dec-04 10:28N 34°35' E 138°51'913.3
2017-Dec-04 09:47N 34°35' E 138°39'413.5
2017-Dec-04 09:30N 34°35' E 138°35'18011.2
2017-Dec-03 17:28N 33°48' E 135°05'612.5
2017-Dec-03 17:00N 33°52' E 135°00'612.8
2017-Dec-03 16:30N 33°57' E 134°55'713.2
2017-Dec-03 15:57N 34°02' E 134°50'613.3
2017-Dec-03 15:31N 34°07' E 134°46'713.8
2017-Dec-03 15:00N 34°12' E 134°40'713.5
2017-Dec-03 14:30N 34°17' E 134°34'9210.3
2017-Dec-03 05:33N 34°00' E 132°45'110.1
2017-Dec-03 05:30N 33°60' E 132°45'6 9.7
2017-Dec-03 04:52N 33°55' E 132°39'1511.0
2017-Dec-03 03:30N 33°50' E 132°22'711.5
2017-Dec-03 02:53N 33°50' E 132°14'811.8
2017-Dec-03 02:11N 33°46' E 132°05'912.3
2017-Dec-03 01:29N 33°45' E 131°55'612.8
2017-Dec-03 01:00N 33°47' E 131°47'712.9
2017-Dec-03 00:30N 33°48' E 131°40'612.8
2017-Dec-03 00:00N 33°49' E 131°32'612.4
2017-Dec-02 23:30N 33°50' E 131°25'612.1
2017-Dec-02 23:00N 33°51' E 131°18'611.7
2017-Dec-02 22:31N 33°53' E 131°11'611.4
2017-Dec-02 22:00N 33°56' E 131°05'510.7
2017-Dec-02 21:30N 33°58' E 130°59'510.1
2017-Dec-02 21:01N 33°54' E 130°55'2 4.5
2017-Dec-02 20:30N 33°54' E 130°53'0 0.0
2017-Dec-02 19:59N 33°54' E 130°53'0 0.0
2017-Dec-02 19:29N 33°54' E 130°53'0 0.0
2017-Dec-02 18:59N 33°54' E 130°53'0 0.0
2017-Dec-02 18:29N 33°54' E 130°53'0 0.0
2017-Dec-02 17:59N 33°54' E 130°53'0 0.0
2017-Dec-02 17:29N 33°54' E 130°53'0 0.0
2017-Dec-02 16:59N 33°54' E 130°53'0 0.0
2017-Dec-02 16:29N 33°54' E 130°53'0 0.0
2017-Dec-02 15:59N 33°54' E 130°53'0 0.0
2017-Dec-02 15:29N 33°54' E 130°53'0 0.0
2017-Dec-02 15:00N 33°54' E 130°53'0 0.0
2017-Dec-02 14:29N 33°54' E 130°53'0 0.0
2017-Dec-02 13:59N 33°54' E 130°53'0 0.0
2017-Dec-02 13:29N 33°54' E 130°53'0 0.0
2017-Dec-02 12:59N 33°54' E 130°53'0 0.0
2017-Dec-02 12:29N 33°54' E 130°53'0 0.0
2017-Dec-02 11:59N 33°54' E 130°53'0 0.0
2017-Dec-02 11:29N 33°54' E 130°53'0 0.0
2017-Dec-02 10:59N 33°54' E 130°53'0 0.0
2017-Dec-02 10:29N 33°54' E 130°53'0 0.0
2017-Dec-02 09:59N 33°54' E 130°53'0 0.0
2017-Dec-02 09:29N 33°54' E 130°53'0 0.0
2017-Dec-02 08:59N 33°54' E 130°53'0 0.0
2017-Dec-02 08:29N 33°54' E 130°53'0 0.0
2017-Dec-02 07:56N 33°54' E 130°53'0 0.0
2017-Dec-02 07:29N 33°54' E 130°53'0 0.0
2017-Dec-02 06:59N 33°54' E 130°53'0 0.0
2017-Dec-02 06:29N 33°54' E 130°53'0 0.0
2017-Dec-02 05:59N 33°54' E 130°53'0 0.0
2017-Dec-02 05:29N 33°54' E 130°53'0 0.0
2017-Dec-02 04:59N 33°54' E 130°53'0 0.0
2017-Dec-02 04:29N 33°54' E 130°53'0 0.0
2017-Dec-02 03:59N 33°54' E 130°53'1 2.1
2017-Dec-02 03:31N 33°54' E 130°54'4 7.0
2017-Dec-02 03:00N 33°56' E 130°51'2 3.5
2017-Dec-02 02:30N 33°56' E 130°49'0 0.0
2017-Dec-02 02:00N 33°56' E 130°49'0 0.0
2017-Dec-02 01:27N 33°56' E 130°49'0 0.0
2017-Dec-02 01:00N 33°56' E 130°49'0 0.0
2017-Dec-02 00:30N 33°56' E 130°49'0 0.0
2017-Dec-02 00:00N 33°56' E 130°49'0 0.0
2017-Dec-01 23:27N 33°56' E 130°49'1 3.2
2017-Dec-01 23:00N 33°56' E 130°50'1 1.4
2017-Dec-01 22:30N 33°56' E 130°51'0 0.0
2017-Dec-01 22:00N 33°56' E 130°51'0 0.1
2017-Dec-01 21:30N 33°56' E 130°51'0 0.0
2017-Dec-01 21:00N 33°56' E 130°51'0 0.1
2017-Dec-01 20:30N 33°56' E 130°51'0 0.1
2017-Dec-01 20:00N 33°56' E 130°51'0 0.0
2017-Dec-01 19:30N 33°56' E 130°51'0 0.0
2017-Dec-01 19:00N 33°56' E 130°51'0 0.0
2017-Dec-01 18:30N 33°56' E 130°51'0 0.0
2017-Dec-01 18:00N 33°56' E 130°51'0 0.1
2017-Dec-01 17:30N 33°56' E 130°51'0 0.1
2017-Dec-01 17:00N 33°56' E 130°51'0 0.0
2017-Dec-01 16:30N 33°56' E 130°51'0 0.1
2017-Dec-01 16:00N 33°56' E 130°51'0 0.0
2017-Dec-01 15:27N 33°56' E 130°51'0 0.1
2017-Dec-01 15:00N 33°56' E 130°51'0 0.0
2017-Dec-01 14:30N 33°56' E 130°51'0 0.1
2017-Dec-01 14:00N 33°56' E 130°51'0 0.0
2017-Dec-01 13:30N 33°56' E 130°51'0 0.0
2017-Dec-01 13:00N 33°56' E 130°51'0 0.0
2017-Dec-01 12:30N 33°56' E 130°51'0 0.0
2017-Dec-01 12:00N 33°56' E 130°51'0 0.0
2017-Dec-01 11:30N 33°56' E 130°51'0 0.0
2017-Dec-01 11:00N 33°56' E 130°51'0 0.0
2017-Dec-01 10:30N 33°56' E 130°51'0 0.1
2017-Dec-01 10:00N 33°56' E 130°51'0 0.1
2017-Dec-01 09:30N 33°56' E 130°51'0 0.1
2017-Dec-01 09:00N 33°56' E 130°51'2 3.4
2017-Dec-01 08:30N 33°55' E 130°53'1 1.6
2017-Dec-01 07:59N 33°55' E 130°52'0 0.0
2017-Dec-01 07:29N 33°55' E 130°52'0 0.0
2017-Dec-01 06:59N 33°55' E 130°52'0 0.0
2017-Dec-01 06:29N 33°55' E 130°52'0 0.0
2017-Dec-01 05:59N 33°55' E 130°52'0 0.0
2017-Dec-01 05:29N 33°55' E 130°52'  
Track history (hours):
 
Tides and Currents Weather Stations Pressure Air Temp Water Temp Dewpoint Dewpoint Depression Visibility Wind Speed Wind Dir Waves Ship Positions

Yahata_maru

Last reported at 2017-Dec-11 05:01 UTC. Time now 2017-Dec-11 11:23 UTC.
Position N 33°15' E 131°36'.

Length 74 m; draft 4.8 m.

Type: Cargo ship. MMSI: 431001106.

Date/timePositionNaut miles runAvg speedWind from/ knotsBaromVisibWave heightAir tempDewpointWater temp
2017-Dec-11 05:01N 33°15' E 131°36'0 0.0
2017-Dec-11 05:00N 33°15' E 131°36'3 0.2
2017-Dec-10 12:20N 33°16' E 131°40'0 0.0
2017-Dec-10 01:30N 33°16' E 131°40'1 1.0
2017-Dec-10 00:57N 33°17' E 131°40'0 0.1
2017-Dec-10 00:21N 33°17' E 131°40'0 0.0
2017-Dec-10 00:00N 33°17' E 131°40'0 0.5
2017-Dec-09 23:29N 33°16' E 131°40'3 6.8
2017-Dec-09 23:00N 33°20' E 131°40'3 3.5
2017-Dec-09 22:12N 33°22' E 131°41'0 0.1
2017-Dec-09 21:48N 33°22' E 131°41'0 0.1
2017-Dec-09 21:24N 33°22' E 131°41'0 0.1
2017-Dec-09 20:54N 33°22' E 131°41'0 0.0
2017-Dec-09 20:24N 33°22' E 131°41'0 0.0
2017-Dec-09 20:00N 33°22' E 131°41'0 0.0
2017-Dec-09 19:30N 33°22' E 131°41'0 0.0
2017-Dec-09 19:00N 33°22' E 131°41'0 0.0
2017-Dec-09 18:30N 33°22' E 131°41'0 0.0
2017-Dec-09 18:00N 33°22' E 131°41'0 0.0
2017-Dec-09 17:30N 33°22' E 131°41'0 0.0
2017-Dec-09 16:54N 33°22' E 131°41'0 0.0
2017-Dec-09 16:30N 33°22' E 131°41'0 0.1
2017-Dec-09 16:00N 33°22' E 131°41'5112.2
2017-Dec-09 11:49N 33°50' E 132°33'613.7
2017-Dec-09 11:20N 33°55' E 132°38'514.2
2017-Dec-09 11:00N 33°58' E 132°43'9612.1
2017-Dec-09 03:07N 34°41' E 134°26'413.0
2017-Dec-09 02:49N 34°42' E 134°30'412.0
2017-Dec-09 02:30N 34°43' E 134°35'5 8.8
2017-Dec-09 01:58N 34°47' E 134°38'0 0.0
2017-Dec-08 18:47N 34°47' E 134°38'0 0.4
2017-Dec-08 18:27N 34°47' E 134°38'2 1.3
2017-Dec-08 16:52N 34°45' E 134°38'0 0.0
2017-Dec-08 15:40N 34°45' E 134°38'0 0.0
2017-Dec-08 15:22N 34°45' E 134°38'1 0.1
2017-Dec-08 05:18N 34°44' E 134°40'311.9
2017-Dec-08 05:01N 34°42' E 134°43'612.0
2017-Dec-08 04:30N 34°39' E 134°50'612.4
2017-Dec-08 04:01N 34°37' E 134°57'713.9
2017-Dec-08 03:30N 34°35' E 135°05'612.9
2017-Dec-08 03:00N 34°29' E 135°03'713.3
2017-Dec-08 02:30N 34°23' E 135°01'714.1
2017-Dec-08 02:00N 34°16' E 134°59'713.1
2017-Dec-08 01:26N 34°08' E 135°00'512.4
2017-Dec-08 01:01N 34°03' E 135°01'16310.0
2017-Dec-07 08:41N 34°33' E 138°15'211.5
2017-Dec-07 08:30N 34°33' E 138°17'1210.9
2017-Dec-07 07:23N 34°34' E 138°32'511.5
2017-Dec-07 06:57N 34°35' E 138°38'1511.0
2017-Dec-07 05:34N 34°36' E 138°57'110.1
2017-Dec-07 05:30N 34°36' E 138°57'611.4
2017-Dec-07 05:01N 34°40' E 139°03'1210.5
2017-Dec-07 03:52N 34°47' E 139°15'4411.8
2017-Dec-07 00:10N 34°58' E 140°06'  
2017-Dec-04 10:28N 34°35' E 138°51'913.3
2017-Dec-04 09:47N 34°35' E 138°39'413.5
2017-Dec-04 09:30N 34°35' E 138°35'18011.2
2017-Dec-03 17:28N 33°48' E 135°05'612.5
2017-Dec-03 17:00N 33°52' E 135°00'612.8
2017-Dec-03 16:30N 33°57' E 134°55'713.2
2017-Dec-03 15:57N 34°02' E 134°50'613.3
2017-Dec-03 15:31N 34°07' E 134°46'713.8
2017-Dec-03 15:00N 34°12' E 134°40'713.5
2017-Dec-03 14:30N 34°17' E 134°34'9210.3
2017-Dec-03 05:33N 34°00' E 132°45'110.1
2017-Dec-03 05:30N 33°60' E 132°45'6 9.7
2017-Dec-03 04:52N 33°55' E 132°39'1511.0
2017-Dec-03 03:30N 33°50' E 132°22'711.5
2017-Dec-03 02:53N 33°50' E 132°14'811.8
2017-Dec-03 02:11N 33°46' E 132°05'912.3
2017-Dec-03 01:29N 33°45' E 131°55'612.8
2017-Dec-03 01:00N 33°47' E 131°47'712.9
2017-Dec-03 00:30N 33°48' E 131°40'612.8
2017-Dec-03 00:00N 33°49' E 131°32'612.4
2017-Dec-02 23:30N 33°50' E 131°25'612.1
2017-Dec-02 23:00N 33°51' E 131°18'611.7
2017-Dec-02 22:31N 33°53' E 131°11'611.4
2017-Dec-02 22:00N 33°56' E 131°05'510.7
2017-Dec-02 21:30N 33°58' E 130°59'510.1
2017-Dec-02 21:01N 33°54' E 130°55'2 4.5
2017-Dec-02 20:30N 33°54' E 130°53'0 0.0
2017-Dec-02 19:59N 33°54' E 130°53'0 0.0
2017-Dec-02 19:29N 33°54' E 130°53'0 0.0
2017-Dec-02 18:59N 33°54' E 130°53'0 0.0
2017-Dec-02 18:29N 33°54' E 130°53'0 0.0
2017-Dec-02 17:59N 33°54' E 130°53'0 0.0
2017-Dec-02 17:29N 33°54' E 130°53'0 0.0
2017-Dec-02 16:59N 33°54' E 130°53'0 0.0
2017-Dec-02 16:29N 33°54' E 130°53'0 0.0
2017-Dec-02 15:59N 33°54' E 130°53'0 0.0
2017-Dec-02 15:29N 33°54' E 130°53'0 0.0
2017-Dec-02 15:00N 33°54' E 130°53'0 0.0
2017-Dec-02 14:29N 33°54' E 130°53'0 0.0
2017-Dec-02 13:59N 33°54' E 130°53'0 0.0
2017-Dec-02 13:29N 33°54' E 130°53'0 0.0
2017-Dec-02 12:59N 33°54' E 130°53'0 0.0
2017-Dec-02 12:29N 33°54' E 130°53'0 0.0
2017-Dec-02 11:59N 33°54' E 130°53'0 0.0
2017-Dec-02 11:29N 33°54' E 130°53'0 0.0
2017-Dec-02 10:59N 33°54' E 130°53'0 0.0
2017-Dec-02 10:29N 33°54' E 130°53'0 0.0
2017-Dec-02 09:59N 33°54' E 130°53'0 0.0
2017-Dec-02 09:29N 33°54' E 130°53'0 0.0
2017-Dec-02 08:59N 33°54' E 130°53'0 0.0
2017-Dec-02 08:29N 33°54' E 130°53'0 0.0
2017-Dec-02 07:56N 33°54' E 130°53'0 0.0
2017-Dec-02 07:29N 33°54' E 130°53'0 0.0
2017-Dec-02 06:59N 33°54' E 130°53'0 0.0
2017-Dec-02 06:29N 33°54' E 130°53'0 0.0
2017-Dec-02 05:59N 33°54' E 130°53'0 0.0
2017-Dec-02 05:29N 33°54' E 130°53'0 0.0
2017-Dec-02 04:59N 33°54' E 130°53'0 0.0
2017-Dec-02 04:29N 33°54' E 130°53'0 0.0
2017-Dec-02 03:59N 33°54' E 130°53'1 2.1
2017-Dec-02 03:31N 33°54' E 130°54'4 7.0
2017-Dec-02 03:00N 33°56' E 130°51'2 3.5
2017-Dec-02 02:30N 33°56' E 130°49'0 0.0
2017-Dec-02 02:00N 33°56' E 130°49'0 0.0
2017-Dec-02 01:27N 33°56' E 130°49'0 0.0
2017-Dec-02 01:00N 33°56' E 130°49'0 0.0
2017-Dec-02 00:30N 33°56' E 130°49'0 0.0
2017-Dec-02 00:00N 33°56' E 130°49'0 0.0
2017-Dec-01 23:27N 33°56' E 130°49'1 3.2
2017-Dec-01 23:00N 33°56' E 130°50'1 1.4
2017-Dec-01 22:30N 33°56' E 130°51'0 0.0
2017-Dec-01 22:00N 33°56' E 130°51'0 0.1
2017-Dec-01 21:30N 33°56' E 130°51'0 0.0
2017-Dec-01 21:00N 33°56' E 130°51'0 0.1
2017-Dec-01 20:30N 33°56' E 130°51'0 0.1
2017-Dec-01 20:00N 33°56' E 130°51'0 0.0
2017-Dec-01 19:30N 33°56' E 130°51'0 0.0
2017-Dec-01 19:00N 33°56' E 130°51'0 0.0
2017-Dec-01 18:30N 33°56' E 130°51'0 0.0
2017-Dec-01 18:00N 33°56' E 130°51'0 0.1
2017-Dec-01 17:30N 33°56' E 130°51'0 0.1
2017-Dec-01 17:00N 33°56' E 130°51'0 0.0
2017-Dec-01 16:30N 33°56' E 130°51'0 0.1
2017-Dec-01 16:00N 33°56' E 130°51'0 0.0
2017-Dec-01 15:27N 33°56' E 130°51'0 0.1
2017-Dec-01 15:00N 33°56' E 130°51'0 0.0
2017-Dec-01 14:30N 33°56' E 130°51'0 0.1
2017-Dec-01 14:00N 33°56' E 130°51'0 0.0
2017-Dec-01 13:30N 33°56' E 130°51'0 0.0
2017-Dec-01 13:00N 33°56' E 130°51'0 0.0
2017-Dec-01 12:30N 33°56' E 130°51'0 0.0
2017-Dec-01 12:00N 33°56' E 130°51'0 0.0
2017-Dec-01 11:30N 33°56' E 130°51'0 0.0
2017-Dec-01 11:00N 33°56' E 130°51'0 0.0
2017-Dec-01 10:30N 33°56' E 130°51'0 0.1
2017-Dec-01 10:00N 33°56' E 130°51'0 0.1
2017-Dec-01 09:30N 33°56' E 130°51'0 0.1
2017-Dec-01 09:00N 33°56' E 130°51'2 3.4
2017-Dec-01 08:30N 33°55' E 130°53'1 1.6
2017-Dec-01 07:59N 33°55' E 130°52'0 0.0
2017-Dec-01 07:29N 33°55' E 130°52'0 0.0
2017-Dec-01 06:59N 33°55' E 130°52'0 0.0
2017-Dec-01 06:29N 33°55' E 130°52'0 0.0
2017-Dec-01 05:59N 33°55' E 130°52'0 0.0
2017-Dec-01 05:29N 33°55' E 130°52'  

Dump ship's entire track history